createdAt,value
2023-09-23T00:01:34.689Z,14.17
2023-09-23T00:06:36.710Z,14.11
2023-09-23T00:11:38.789Z,14.13
2023-09-23T00:16:41.051Z,14.21
2023-09-23T00:21:43.071Z,14.17
2023-09-23T00:26:45.332Z,14.05
2023-09-23T00:31:47.238Z,13.99
2023-09-23T00:36:49.294Z,13.98
2023-09-23T00:41:51.325Z,13.86
2023-09-23T00:46:53.416Z,13.82
2023-09-23T00:51:55.511Z,13.65
2023-09-23T00:57:01.796Z,13.37
2023-09-23T01:02:06.755Z,13.32
2023-09-23T01:07:10.843Z,13.45
2023-09-23T01:12:12.772Z,13.46
2023-09-23T01:17:16.279Z,13.42
2023-09-23T01:22:24.459Z,13.36
2023-09-23T01:27:26.517Z,13.43
2023-09-23T01:32:40.740Z,13.37
2023-09-23T01:37:43.276Z,13.22
2023-09-23T01:42:52.776Z,13.09
2023-09-23T01:47:58.289Z,13.04
2023-09-23T01:53:03.370Z,13.17
2023-09-23T01:58:06.916Z,13.16
2023-09-23T02:03:09.025Z,13.10
2023-09-23T02:08:11.935Z,13.05
2023-09-23T02:13:14.218Z,12.91
2023-09-23T02:18:16.213Z,12.72
2023-09-23T02:23:19.231Z,12.73
2023-09-23T02:28:21.584Z,12.72
2023-09-23T02:33:25.956Z,12.82
2023-09-23T02:38:32.416Z,12.80
2023-09-23T02:43:34.469Z,12.71
2023-09-23T02:48:36.500Z,12.64
2023-09-23T02:53:39.009Z,12.68
2023-09-23T02:58:41.669Z,12.63
2023-09-23T03:03:48.158Z,12.50
2023-09-23T03:08:55.359Z,12.51
2023-09-23T03:13:57.669Z,12.45
2023-09-23T03:19:12.650Z,12.38
2023-09-23T03:24:14.905Z,12.35
2023-09-23T03:29:19.779Z,12.30
2023-09-23T03:34:23.366Z,12.24
2023-09-23T03:39:26.368Z,12.22
2023-09-23T03:44:28.349Z,12.15
2023-09-23T03:49:31.438Z,12.18
2023-09-23T03:54:34.557Z,12.14
2023-09-23T03:59:37.293Z,12.09
2023-09-23T04:04:39.615Z,12.09
2023-09-23T04:09:41.658Z,12.05
2023-09-23T04:14:43.686Z,11.93
2023-09-23T04:19:45.746Z,11.99
2023-09-23T04:24:48.005Z,11.98
2023-09-23T04:29:50.220Z,12.00
2023-09-23T04:34:52.784Z,11.94
2023-09-23T04:39:56.307Z,11.78
2023-09-23T04:44:59.352Z,11.71
2023-09-23T04:50:01.603Z,11.65
2023-09-23T04:55:04.220Z,11.78
2023-09-23T05:00:10.458Z,11.63
2023-09-23T05:05:13.685Z,11.55
2023-09-23T05:10:15.980Z,11.49
2023-09-23T05:15:18.602Z,11.46
2023-09-23T05:20:21.692Z,11.53
2023-09-23T05:25:25.825Z,11.52
2023-09-23T05:30:28.638Z,11.50
2023-09-23T05:35:30.759Z,11.40
2023-09-23T05:40:37.929Z,11.43
2023-09-23T05:45:40.016Z,11.29
2023-09-23T05:50:42.101Z,11.33
2023-09-23T05:55:45.245Z,11.33
2023-09-23T06:00:48.262Z,11.32
2023-09-23T06:05:51.080Z,11.28
2023-09-23T06:10:53.700Z,11.27
2023-09-23T06:16:04.500Z,11.22
2023-09-23T06:21:08.205Z,11.15
2023-09-23T06:26:11.599Z,11.21
2023-09-23T06:31:13.931Z,11.35
2023-09-23T06:36:15.995Z,11.34
2023-09-23T06:41:18.081Z,11.35
2023-09-23T06:46:20.082Z,11.46
2023-09-23T06:51:21.950Z,11.40
2023-09-23T06:56:25.672Z,11.42
2023-09-23T07:01:28.155Z,11.33
2023-09-23T07:06:30.255Z,11.35
2023-09-23T07:11:32.733Z,11.46
2023-09-23T07:16:35.142Z,11.46
2023-09-23T07:21:37.126Z,11.60
2023-09-23T07:26:39.262Z,11.61
2023-09-23T07:31:41.231Z,11.81
2023-09-23T07:36:44.220Z,11.91
2023-09-23T07:41:46.231Z,12.07
2023-09-23T07:46:48.273Z,12.22
2023-09-23T07:51:50.791Z,12.37
2023-09-23T07:56:52.807Z,12.52
2023-09-23T08:01:55.011Z,12.71
2023-09-23T08:06:57.338Z,12.85
2023-09-23T08:11:59.800Z,13.02
2023-09-23T08:17:01.725Z,13.18
2023-09-23T08:22:03.693Z,13.46
2023-09-23T08:27:07.139Z,13.73
2023-09-23T08:32:09.247Z,14.05
2023-09-23T08:37:11.444Z,14.33
2023-09-23T08:42:13.646Z,14.82
2023-09-23T08:47:15.869Z,15.24
2023-09-23T08:52:18.658Z,15.72
2023-09-23T08:57:21.450Z,17.03
2023-09-23T09:02:27.092Z,18.45
2023-09-23T09:07:36.892Z,19.36
2023-09-23T09:12:39.333Z,19.76
2023-09-23T09:17:42.678Z,20.31
2023-09-23T09:22:46.853Z,20.62
2023-09-23T09:27:49.626Z,21.51
2023-09-23T09:32:53.070Z,22.13
2023-09-23T09:38:15.022Z,22.41
2023-09-23T09:43:21.453Z,22.88
2023-09-23T09:48:24.245Z,22.91
2023-09-23T09:53:26.816Z,23.19
2023-09-23T09:58:39.052Z,23.23
2023-09-23T10:03:45.849Z,23.55
2023-09-23T10:08:49.944Z,23.50
2023-09-23T10:13:52.175Z,23.63
2023-09-23T10:18:58.520Z,23.58
2023-09-23T10:24:01.657Z,24.04
2023-09-23T10:29:05.250Z,24.26
2023-09-23T10:34:17.286Z,23.92
2023-09-23T10:39:19.425Z,24.41
2023-09-23T10:44:25.856Z,24.40
2023-09-23T10:49:28.777Z,24.53
2023-09-23T10:54:30.603Z,24.31
2023-09-23T10:59:33.700Z,24.62
2023-09-23T11:04:35.716Z,24.54
2023-09-23T11:09:37.693Z,24.34
2023-09-23T11:14:51.498Z,24.63
2023-09-23T11:19:57.494Z,24.11
2023-09-23T11:24:59.816Z,23.34
2023-09-23T11:30:02.942Z,23.44
2023-09-23T11:35:05.721Z,23.10
2023-09-23T11:40:09.657Z,22.93
2023-09-23T11:45:13.163Z,22.76
2023-09-23T11:50:15.221Z,22.63
2023-09-23T11:55:17.942Z,22.37
2023-09-23T12:00:21.568Z,21.90
2023-09-23T12:05:30.098Z,22.06
2023-09-23T12:10:32.800Z,21.90
2023-09-23T12:15:35.617Z,21.77
2023-09-23T12:20:37.957Z,21.50
2023-09-23T12:25:40.352Z,21.75
2023-09-23T12:30:42.428Z,21.58
2023-09-23T12:35:44.575Z,21.41
2023-09-23T12:40:46.679Z,21.61
2023-09-23T12:45:49.965Z,21.47
2023-09-23T12:50:52.453Z,21.27
2023-09-23T12:55:54.435Z,21.27
2023-09-23T13:00:56.446Z,21.18
2023-09-23T13:05:58.605Z,21.30
2023-09-23T13:11:01.689Z,21.35
2023-09-23T13:16:04.416Z,21.40
2023-09-23T13:21:07.989Z,20.99
2023-09-23T13:26:09.979Z,21.09
2023-09-23T13:31:12.228Z,21.19
2023-09-23T13:36:14.293Z,21.28
2023-09-23T13:41:17.344Z,21.21
2023-09-23T13:46:20.060Z,21.14
2023-09-23T13:51:22.592Z,21.02
2023-09-23T13:56:25.267Z,21.23
2023-09-23T14:01:27.337Z,21.38
2023-09-23T14:06:30.535Z,21.45
2023-09-23T14:11:32.691Z,21.33
2023-09-23T14:16:34.937Z,21.40
2023-09-23T14:21:36.813Z,21.50
2023-09-23T14:26:38.929Z,21.50
2023-09-23T14:31:41.054Z,21.33
2023-09-23T14:36:43.549Z,21.18
2023-09-23T14:41:46.081Z,21.05
2023-09-23T14:46:48.317Z,21.13
2023-09-23T14:51:50.672Z,21.36
2023-09-23T14:56:52.738Z,21.51
2023-09-23T15:01:54.630Z,21.75
2023-09-23T15:06:56.796Z,21.67
2023-09-23T15:11:59.279Z,21.69
2023-09-23T15:17:01.372Z,21.77
2023-09-23T15:22:03.763Z,21.75
2023-09-23T15:27:05.675Z,21.64
2023-09-23T15:32:07.835Z,21.62
2023-09-23T15:37:09.712Z,21.73
2023-09-23T15:42:12.932Z,21.61
2023-09-23T15:47:15.407Z,21.57
2023-09-23T15:52:18.096Z,21.68
2023-09-23T15:57:20.325Z,21.70
2023-09-23T16:02:22.488Z,21.62
2023-09-23T16:07:24.573Z,21.66
2023-09-23T16:12:26.784Z,21.69
2023-09-23T16:17:28.975Z,21.70
2023-09-23T16:22:31.035Z,21.59
2023-09-23T16:27:34.501Z,21.45
2023-09-23T16:32:36.913Z,21.42
2023-09-23T16:37:39.021Z,21.42
2023-09-23T16:42:41.218Z,21.23
2023-09-23T16:47:45.454Z,21.09
2023-09-23T16:52:47.468Z,21.15
2023-09-23T16:57:49.590Z,20.96
2023-09-23T17:02:52.067Z,20.90
2023-09-23T17:07:54.413Z,20.98
2023-09-23T17:12:56.402Z,21.01
2023-09-23T17:17:58.467Z,20.95
2023-09-23T17:23:00.428Z,20.98
2023-09-23T17:28:02.647Z,20.83
2023-09-23T17:33:05.927Z,20.78
2023-09-23T17:38:08.125Z,20.72
2023-09-23T17:43:10.239Z,20.61
2023-09-23T17:48:13.598Z,20.34
2023-09-23T17:53:15.506Z,20.23
2023-09-23T17:58:17.351Z,20.06
2023-09-23T18:03:20.046Z,19.94
2023-09-23T18:08:22.419Z,19.80
2023-09-23T18:13:24.604Z,19.62
2023-09-23T18:18:28.640Z,19.49
2023-09-23T18:23:30.920Z,19.36
2023-09-23T18:28:33.083Z,19.33
2023-09-23T18:33:35.317Z,19.15
2023-09-23T18:38:37.559Z,19.08
2023-09-23T18:43:39.901Z,18.87
2023-09-23T18:48:42.037Z,18.85
2023-09-23T18:53:44.098Z,18.72
2023-09-23T18:58:46.095Z,18.71
2023-09-23T19:03:48.478Z,18.66
2023-09-23T19:08:51.644Z,18.63
2023-09-23T19:13:53.747Z,18.58
2023-09-23T19:18:55.771Z,18.49
2023-09-23T19:23:58.471Z,18.41
2023-09-23T19:29:00.671Z,18.35
2023-09-23T19:34:02.861Z,18.27
2023-09-23T19:39:05.031Z,18.28
2023-09-23T19:44:07.228Z,18.10
2023-09-23T19:49:09.401Z,17.77
2023-09-23T19:54:12.130Z,17.80
2023-09-23T19:59:14.084Z,17.76
2023-09-23T20:04:16.020Z,17.76
2023-09-23T20:09:18.197Z,17.72
2023-09-23T20:14:20.764Z,17.64
2023-09-23T20:19:22.793Z,17.56
2023-09-23T20:24:25.125Z,17.63
2023-09-23T20:29:27.127Z,17.64
2023-09-23T20:34:29.356Z,17.39
2023-09-23T20:39:31.690Z,17.45
2023-09-23T20:44:33.736Z,17.42
2023-09-23T20:49:35.834Z,17.41
2023-09-23T20:54:37.699Z,17.25
2023-09-23T20:59:39.858Z,17.16
2023-09-23T21:04:42.351Z,17.15
2023-09-23T21:09:44.450Z,17.07
2023-09-23T21:14:46.572Z,16.99
2023-09-23T21:19:48.650Z,16.93
2023-09-23T21:24:50.877Z,16.97
2023-09-23T21:29:52.882Z,16.92
2023-09-23T21:34:54.979Z,16.89
2023-09-23T21:39:57.000Z,16.74
2023-09-23T21:44:59.272Z,16.78
2023-09-23T21:50:09.686Z,16.66
2023-09-23T21:55:14.750Z,16.64
2023-09-23T22:00:29.625Z,16.62
2023-09-23T22:05:32.139Z,16.63
2023-09-23T22:10:34.261Z,16.45
2023-09-23T22:15:36.414Z,16.45
2023-09-23T22:20:39.532Z,16.39
2023-09-23T22:25:41.790Z,16.33
2023-09-23T22:30:46.110Z,16.34
2023-09-23T22:35:48.731Z,16.29
2023-09-23T22:40:51.217Z,16.26
2023-09-23T22:45:53.638Z,16.21
2023-09-23T22:50:56.144Z,16.14
2023-09-23T22:56:01.002Z,16.09
2023-09-23T23:01:06.844Z,16.00
2023-09-23T23:06:09.112Z,15.94
2023-09-23T23:11:11.746Z,15.86
2023-09-23T23:16:14.150Z,15.86
2023-09-23T23:21:16.464Z,15.76
2023-09-23T23:26:18.579Z,15.77
2023-09-23T23:31:22.000Z,15.76
2023-09-23T23:36:23.849Z,15.74
2023-09-23T23:41:27.275Z,15.68
2023-09-23T23:46:29.674Z,15.64
2023-09-23T23:51:31.771Z,15.55
2023-09-23T23:56:34.152Z,15.56
